Time;durP1;ratioP1;P1;durP2;ratioP2;P2;SDS_P1;SDS_P2;PMS_P1;PMS_P2;Temp;Humidity;BMP_temperature;BMP_pressure;BME280_temperature;BME280_humidity;BME280_pressure;Samples;Min_cycle;Max_cycle;Signal;HPM_P1;HPM_P2
2021/01/24 00:01:08;;;;;;;2.77;2.57;;;7.50;68.00;;;;;;6184831;23;20419;-73
2021/01/24 00:03:34;;;;;;;3.67;2.60;;;7.50;68.00;;;;;;6185712;23;20745;-73
2021/01/24 00:06:01;;;;;;;3.27;2.97;;;7.50;68.10;;;;;;6185004;23;20479;-74
2021/01/24 00:08:27;;;;;;;2.73;2.53;;;7.50;68.10;;;;;;6185281;23;20442;-74
2021/01/24 00:10:54;;;;;;;2.73;2.53;;;7.50;68.30;;;;;;6185352;23;20462;-74
2021/01/24 00:13:21;;;;;;;3.60;3.30;;;7.50;68.40;;;;;;6185370;23;20897;-73
2021/01/24 00:15:48;;;;;;;2.87;2.63;;;7.50;68.60;;;;;;6185351;23;20451;-73
2021/01/24 00:18:15;;;;;;;2.20;2.10;;;7.50;68.60;;;;;;6185653;23;20422;-74
2021/01/24 00:20:41;;;;;;;2.47;2.27;;;7.50;68.80;;;;;;6185629;23;20415;-73
2021/01/24 00:23:08;;;;;;;2.40;2.20;;;7.50;68.60;;;;;;6182917;23;20916;-73
2021/01/24 00:25:34;;;;;;;2.17;2.03;;;7.50;68.80;;;;;;6185107;23;20410;-74
2021/01/24 00:28:01;;;;;;;2.87;1.87;;;7.50;68.70;;;;;;6185136;23;20420;-74
2021/01/24 00:30:28;;;;;;;2.17;1.97;;;7.50;68.50;;;;;;6185159;23;20410;-74
2021/01/24 00:32:55;;;;;;;2.20;2.00;;;7.50;68.20;;;;;;6185115;23;20410;-74
2021/01/24 00:35:21;;;;;;;2.40;2.30;;;7.50;68.20;;;;;;6185752;23;20510;-73
2021/01/24 00:37:48;;;;;;;2.03;1.90;;;7.50;68.30;;;;;;6185090;23;20461;-73
2021/01/24 00:40:14;;;;;;;2.03;1.93;;;7.50;68.30;;;;;;6184962;23;20411;-73
2021/01/24 00:42:41;;;;;;;2.20;2.00;;;7.50;68.20;;;;;;6184685;23;20418;-74
2021/01/24 00:45:09;;;;;;;1.70;1.60;;;7.50;68.20;;;;;;6184767;23;20527;-73
2021/01/24 00:47:37;;;;;;;1.50;1.40;;;7.50;68.30;;;;;;6185146;23;20781;-73
2021/01/24 00:50:06;;;;;;;2.00;1.80;;;7.50;68.10;;;;;;6183044;23;20446;-74
2021/01/24 00:52:32;;;;;;;2.13;1.87;;;7.50;68.20;;;;;;6185528;23;20727;-74
2021/01/24 00:54:59;;;;;;;2.30;2.00;;;7.60;68.50;;;;;;6184984;23;20420;-74
2021/01/24 00:57:25;;;;;;;1.63;1.53;;;7.60;68.30;;;;;;6184873;23;20410;-74
2021/01/24 00:59:52;;;;;;;1.90;1.80;;;7.60;68.00;;;;;;6184172;23;20462;-74
2021/01/24 01:02:19;;;;;;;1.87;1.70;;;7.60;67.90;;;;;;6185102;23;20770;-74
2021/01/24 01:04:46;;;;;;;1.50;1.40;;;7.60;67.90;;;;;;6184775;23;20470;-75
2021/01/24 01:07:13;;;;;;;2.20;2.10;;;7.60;67.80;;;;;;6184546;23;20435;-74
2021/01/24 01:09:40;;;;;;;2.20;1.90;;;7.50;67.40;;;;;;6184670;23;20412;-74
2021/01/24 01:12:07;;;;;;;1.70;1.60;;;7.50;67.60;;;;;;6184737;23;20412;-74
2021/01/24 01:14:33;;;;;;;2.20;2.00;;;7.40;67.90;;;;;;6184739;23;20411;-74
2021/01/24 01:17:00;;;;;;;1.90;1.80;;;7.40;68.30;;;;;;6182601;23;20461;-74
2021/01/24 01:19:26;;;;;;;4.20;2.23;;;7.40;68.50;;;;;;6184763;23;20410;-74
2021/01/24 01:21:54;;;;;;;1.50;1.40;;;7.40;68.30;;;;;;6184610;23;20429;-74
2021/01/24 01:24:20;;;;;;;1.60;1.50;;;7.40;68.00;;;;;;6187276;23;20410;-74
2021/01/24 01:26:47;;;;;;;2.00;1.90;;;7.40;68.00;;;;;;6187142;23;20956;-74
2021/01/24 01:29:13;;;;;;;1.70;1.60;;;7.40;68.20;;;;;;6184816;23;20418;-74
2021/01/24 01:31:40;;;;;;;1.70;1.60;;;7.40;68.30;;;;;;6184643;23;20924;-74
2021/01/24 01:34:06;;;;;;;1.70;1.60;;;7.30;68.00;;;;;;6184441;23;20786;-74
2021/01/24 01:36:33;;;;;;;2.27;1.60;;;7.30;67.90;;;;;;6184328;23;20454;-73
2021/01/24 01:39:01;;;;;;;1.87;1.77;;;7.30;67.90;;;;;;6184511;23;20414;-73
2021/01/24 01:41:32;;;;;;;1.83;1.67;;;7.30;68.00;;;;;;6185099;23;20410;-73
2021/01/24 01:43:59;;;;;;;1.50;1.40;;;7.30;68.20;;;;;;6182541;23;20409;-73
2021/01/24 01:46:27;;;;;;;1.80;1.70;;;7.30;68.10;;;;;;6184920;23;20802;-73
2021/01/24 01:48:54;;;;;;;4.10;2.00;;;7.20;67.70;;;;;;6184923;23;20473;-74
2021/01/24 01:51:21;;;;;;;2.63;1.80;;;7.20;67.60;;;;;;6186382;23;20410;-73
2021/01/24 01:53:48;;;;;;;2.00;1.90;;;7.20;68.00;;;;;;6186915;23;20410;-73
2021/01/24 01:56:15;;;;;;;4.03;2.00;;;7.20;68.40;;;;;;6186810;23;20454;-74
2021/01/24 01:58:42;;;;;;;1.97;1.67;;;7.20;68.30;;;;;;6187109;23;20789;-74
2021/01/24 02:01:19;;;;;;;1.90;1.80;;;7.20;68.40;;;;;;6186661;23;20411;-73
2021/01/24 02:03:55;;;;;;;2.30;2.10;;;7.30;68.40;;;;;;6186360;23;20410;-74
2021/01/24 02:06:29;;;;;;;2.13;2.03;;;7.30;68.30;;;;;;6186641;23;20456;-73
2021/01/24 02:09:06;;;;;;;1.80;1.70;;;7.40;68.00;;;;;;6184510;23;20433;-74
2021/01/24 02:11:42;;;;;;;1.87;1.77;;;7.40;68.10;;;;;;6186348;23;20415;-74
2021/01/24 02:14:18;;;;;;;3.23;2.10;;;7.40;67.80;;;;;;6185907;23;20411;-73
2021/01/24 02:16:45;;;;;;;1.23;1.13;;;7.30;67.30;;;;;;6186762;23;20789;-74
2021/01/24 02:19:23;;;;;;;1.23;1.13;;;7.10;67.40;;;;;;6186626;23;20444;-74
2021/01/24 02:21:50;;;;;;;1.00;0.90;;;7.10;68.10;;;;;;6186181;23;20406;-73
2021/01/24 02:24:18;;;;;;;1.00;1.00;;;7.00;68.20;;;;;;6186141;23;20893;-73
2021/01/24 02:26:55;;;;;;;0.83;0.83;;;6.90;68.30;;;;;;6186393;23;20402;-73
2021/01/24 02:29:29;;;;;;;0.80;0.80;;;6.90;68.20;;;;;;6185645;23;20414;-73
2021/01/24 02:31:59;;;;;;;2.60;0.83;;;6.80;67.40;;;;;;6186571;23;20755;-73
2021/01/24 02:34:32;;;;;;;0.90;0.80;;;6.80;67.70;;;;;;6185630;23;20424;-73
2021/01/24 02:37:00;;;;;;;0.70;0.70;;;6.70;66.90;;;;;;6184223;23;20955;-74
2021/01/24 02:39:28;;;;;;;0.70;0.60;;;6.70;67.70;;;;;;6185910;23;20417;-74
2021/01/24 02:41:54;;;;;;;0.60;0.60;;;6.80;67.40;;;;;;6186054;23;20924;-75
2021/01/24 02:44:21;;;;;;;0.60;0.60;;;6.80;66.90;;;;;;6186027;23;20445;-74
2021/01/24 02:46:48;;;;;;;0.60;0.60;;;6.80;66.70;;;;;;6185959;23;20439;-75
2021/01/24 02:49:16;;;;;;;0.50;0.50;;;6.70;66.10;;;;;;6186166;23;20410;-74
2021/01/24 02:51:43;;;;;;;0.47;0.47;;;6.60;66.80;;;;;;6185978;23;20928;-74
2021/01/24 02:54:10;;;;;;;0.40;0.40;;;6.60;67.60;;;;;;6185911;23;20410;-74
2021/01/24 02:56:38;;;;;;;0.40;0.40;;;6.70;67.60;;;;;;6185584;23;20454;-75
2021/01/24 02:59:04;;;;;;;0.50;0.40;;;6.80;67.20;;;;;;6185859;23;20418;-74
2021/01/24 03:01:31;;;;;;;0.60;0.60;;;6.80;67.10;;;;;;6183074;23;20411;-74
2021/01/24 03:03:57;;;;;;;1.07;0.60;;;6.90;66.60;;;;;;6185896;23;20419;-75
2021/01/24 03:06:25;;;;;;;1.10;0.77;;;6.90;66.30;;;;;;6186350;23;20421;-74
2021/01/24 03:08:51;;;;;;;0.70;0.70;;;6.90;66.30;;;;;;6185888;23;20441;-75
2021/01/24 03:11:20;;;;;;;0.80;0.80;;;6.80;65.20;;;;;;6186005;23;20406;-72
2021/01/24 03:13:52;;;;;;;0.87;0.87;;;6.70;65.60;;;;;;6185873;23;20406;-72
2021/01/24 03:16:20;;;;;;;0.97;0.93;;;6.60;64.40;;;;;;6185729;23;20481;-74
2021/01/24 03:18:47;;;;;;;1.37;1.27;;;6.60;64.60;;;;;;6185467;23;20415;-75
2021/01/24 03:21:16;;;;;;;1.23;1.13;;;6.50;63.30;;;;;;6185474;23;20422;-75
2021/01/24 03:23:44;;;;;;;0.97;0.87;;;6.40;63.50;;;;;;6186155;23;20439;-74
2021/01/24 03:26:11;;;;;;;1.00;1.00;;;6.30;65.30;;;;;;6185547;23;20421;-74
2021/01/24 03:28:38;;;;;;;2.03;1.30;;;6.30;67.20;;;;;;6183326;23;20412;-74
2021/01/24 03:31:06;;;;;;;1.60;1.50;;;6.30;68.30;;;;;;6185311;23;20413;-75
2021/01/24 03:33:33;;;;;;;1.30;1.27;;;6.30;68.80;;;;;;6185512;23;20410;-74
2021/01/24 03:35:59;;;;;;;1.40;1.30;;;6.30;69.00;;;;;;6185624;23;20438;-74
2021/01/24 03:38:26;;;;;;;1.60;1.03;;;6.30;69.60;;;;;;6185549;23;20445;-74
2021/01/24 03:40:54;;;;;;;1.73;1.63;;;6.20;68.00;;;;;;6185823;23;20448;-74
2021/01/24 03:43:20;;;;;;;1.90;1.80;;;6.20;68.20;;;;;;6185478;23;20413;-74
2021/01/24 03:45:47;;;;;;;1.53;1.43;;;6.20;68.20;;;;;;6185811;23;20926;-74
2021/01/24 03:48:13;;;;;;;1.93;1.73;;;6.30;67.90;;;;;;6185421;23;20424;-74
2021/01/24 03:50:40;;;;;;;2.00;1.80;;;6.10;65.90;;;;;;6185319;23;20421;-74
2021/01/24 03:53:06;;;;;;;4.00;1.93;;;5.90;64.80;;;;;;6185508;23;20429;-74
2021/01/24 03:55:33;;;;;;;1.90;1.70;;;5.90;64.90;;;;;;6183175;23;20410;-74
2021/01/24 03:58:00;;;;;;;3.00;2.37;;;5.90;64.70;;;;;;6184818;23;20447;-75
2021/01/24 04:00:27;;;;;;;2.17;2.03;;;6.00;65.00;;;;;;6185065;23;20923;-76
2021/01/24 04:02:53;;;;;;;2.53;2.33;;;6.00;64.70;;;;;;6185879;23;20417;-76
2021/01/24 04:05:20;;;;;;;1.87;1.77;;;6.10;65.00;;;;;;6185157;23;20410;-75
2021/01/24 04:07:47;;;;;;;2.00;1.90;;;6.20;64.50;;;;;;6185192;23;20444;-75
2021/01/24 04:10:14;;;;;;;2.57;2.37;;;6.20;63.80;;;;;;6185400;23;20457;-76
2021/01/24 04:12:41;;;;;;;2.40;2.20;;;6.20;62.90;;;;;;6184686;23;20947;-75
2021/01/24 04:15:09;;;;;;;2.87;2.67;;;6.30;62.70;;;;;;6184974;23;20872;-76
2021/01/24 04:17:36;;;;;;;2.60;2.40;;;6.30;62.50;;;;;;6185940;23;20519;-75
2021/01/24 04:20:04;;;;;;;2.10;1.90;;;6.30;61.40;;;;;;6185210;23;20424;-75
2021/01/24 04:22:30;;;;;;;6.17;3.03;;;6.20;61.90;;;;;;6184953;23;20473;-77
2021/01/24 04:24:57;;;;;;;4.43;1.90;;;6.20;62.10;;;;;;6185726;23;20923;-75
2021/01/24 04:27:23;;;;;;;2.30;2.10;;;6.20;63.10;;;;;;6185284;23;20482;-75
2021/01/24 04:29:50;;;;;;;2.57;2.37;;;6.10;64.70;;;;;;6184936;23;20427;-75
2021/01/24 04:32:17;;;;;;;2.60;2.40;;;5.90;65.90;;;;;;6184884;23;20445;-75
2021/01/24 04:34:44;;;;;;;2.23;2.03;;;5.80;66.20;;;;;;6184904;23;20425;-75
2021/01/24 04:37:10;;;;;;;2.17;2.07;;;5.70;65.60;;;;;;6184909;23;20452;-75
2021/01/24 04:39:37;;;;;;;2.87;2.30;;;5.60;65.80;;;;;;6185096;23;20452;-75
2021/01/24 04:42:04;;;;;;;2.63;2.30;;;5.60;65.90;;;;;;6185354;23;20417;-74
2021/01/24 04:44:31;;;;;;;2.40;2.20;;;5.60;65.40;;;;;;6185580;23;20464;-75
2021/01/24 04:46:58;;;;;;;2.30;2.10;;;5.70;65.40;;;;;;6184419;23;20436;-75
2021/01/24 04:49:26;;;;;;;1.90;1.80;;;5.70;65.20;;;;;;6184073;23;20421;-75
2021/01/24 04:51:53;;;;;;;2.70;1.90;;;5.70;64.30;;;;;;6184857;23;20456;-75
2021/01/24 04:54:19;;;;;;;2.53;2.33;;;5.60;63.10;;;;;;6184892;23;20412;-75
2021/01/24 04:56:46;;;;;;;2.10;1.87;;;5.60;62.60;;;;;;6184624;23;20957;-75
2021/01/24 04:59:13;;;;;;;1.93;1.83;;;5.60;62.00;;;;;;6184877;23;20424;-74
2021/01/24 05:01:43;;;;;;;2.60;2.40;;;5.60;61.10;;;;;;6184422;23;21017;-75
2021/01/24 05:04:10;;;;;;;1.80;1.70;;;5.60;60.10;;;;;;6185369;23;20787;-75
2021/01/24 05:06:37;;;;;;;2.93;2.10;;;5.60;59.40;;;;;;6184611;23;20414;-74
2021/01/24 05:09:04;;;;;;;2.70;1.77;;;5.40;58.00;;;;;;6185272;23;20780;-75
2021/01/24 05:11:32;;;;;;;3.83;1.70;;;5.40;58.50;;;;;;6184608;23;20420;-75
2021/01/24 05:14:14;;;;;;;3.00;2.10;;;5.50;58.50;;;;;;6183064;23;20414;-75
2021/01/24 05:16:41;;;;;;;3.40;2.13;;;5.60;58.50;;;;;;6184286;23;20489;-76
2021/01/24 05:19:09;;;;;;;1.90;1.80;;;5.60;58.30;;;;;;6185406;23;20449;-74
2021/01/24 05:21:37;;;;;;;2.30;2.20;;;5.70;58.20;;;;;;6185354;23;20508;-75
2021/01/24 05:24:07;;;;;;;2.40;2.00;;;5.80;58.10;;;;;;6184602;23;20420;-74
2021/01/24 05:26:33;;;;;;;2.00;1.90;;;5.80;57.30;;;;;;6185108;23;20749;-74
2021/01/24 05:29:00;;;;;;;2.60;2.40;;;5.90;57.40;;;;;;6184843;23;20442;-75
2021/01/24 05:31:26;;;;;;;2.80;2.60;;;5.90;57.80;;;;;;6184447;23;20415;-75
2021/01/24 05:33:57;;;;;;;3.07;2.33;;;5.80;58.00;;;;;;6184610;23;20416;-75
2021/01/24 05:36:24;;;;;;;2.40;2.20;;;5.90;58.50;;;;;;6184430;23;20489;-75
2021/01/24 05:38:53;;;;;;;4.10;2.90;;;5.90;58.30;;;;;;6185169;23;20781;-75
2021/01/24 05:41:20;;;;;;;2.50;2.30;;;6.00;58.60;;;;;;6182679;23;20449;-75
2021/01/24 05:43:46;;;;;;;2.80;2.60;;;6.00;58.80;;;;;;6185171;23;20446;-75
2021/01/24 05:46:13;;;;;;;3.03;2.73;;;6.00;59.10;;;;;;6184218;23;20417;-74
2021/01/24 05:48:48;;;;;;;3.20;2.50;;;6.00;59.00;;;;;;6184123;23;20413;-74
2021/01/24 05:51:16;;;;;;;3.90;2.80;;;6.00;59.20;;;;;;6184378;23;20417;-74
2021/01/24 05:53:46;;;;;;;3.70;2.40;;;6.00;58.80;;;;;;6184616;23;20492;-75
2021/01/24 05:56:18;;;;;;;3.23;2.30;;;5.90;58.90;;;;;;6184223;23;20461;-75
2021/01/24 05:58:45;;;;;;;3.10;2.80;;;5.80;57.20;;;;;;6184441;23;20927;-74
2021/01/24 06:01:11;;;;;;;2.73;2.53;;;5.70;57.80;;;;;;6184304;23;20899;-75
2021/01/24 06:03:39;;;;;;;3.87;2.13;;;5.70;58.20;;;;;;6184283;23;20425;-75
2021/01/24 06:06:06;;;;;;;3.13;2.90;;;5.70;58.40;;;;;;6184163;23;20446;-75
2021/01/24 06:08:33;;;;;;;5.87;3.57;;;5.80;58.50;;;;;;6185742;23;20468;-74
2021/01/24 06:10:59;;;;;;;3.73;2.80;;;5.80;58.40;;;;;;6184416;23;20421;-74
2021/01/24 06:13:28;;;;;;;2.83;2.63;;;5.90;58.20;;;;;;6184063;23;20461;-74
2021/01/24 06:16:04;;;;;;;3.33;2.90;;;5.90;57.90;;;;;;6184062;23;20448;-74
2021/01/24 06:18:36;;;;;;;3.00;2.80;;;5.90;58.20;;;;;;6184895;23;20481;-75
2021/01/24 06:21:04;;;;;;;3.70;3.37;;;5.90;57.70;;;;;;6184272;23;20903;-74
2021/01/24 06:23:36;;;;;;;3.30;2.40;;;5.80;57.60;;;;;;6184580;23;20471;-75
2021/01/24 06:26:06;;;;;;;5.10;3.17;;;5.80;57.60;;;;;;6184289;23;20460;-75
2021/01/24 06:28:37;;;;;;;3.50;2.90;;;5.70;57.80;;;;;;6184656;23;20416;-74
2021/01/24 06:31:03;;;;;;;4.03;3.30;;;5.70;58.00;;;;;;6184223;23;20481;-75
2021/01/24 06:33:30;;;;;;;2.73;2.53;;;5.60;58.30;;;;;;6182416;23;20413;-75
2021/01/24 06:35:59;;;;;;;3.37;3.07;;;5.70;58.60;;;;;;6184225;23;20467;-75
2021/01/24 06:38:31;;;;;;;3.20;2.90;;;5.70;58.60;;;;;;6186133;23;20420;-74
2021/01/24 06:40:59;;;;;;;4.03;3.60;;;5.70;58.90;;;;;;6186294;23;20409;-75
2021/01/24 06:43:35;;;;;;;4.20;2.83;;;5.80;58.60;;;;;;6186100;23;20420;-74
2021/01/24 06:46:01;;;;;;;3.20;2.87;;;5.80;58.30;;;;;;6185857;23;20447;-75
2021/01/24 06:48:47;;;;;;;3.70;3.10;;;5.70;58.40;;;;;;6186568;23;20460;-74
2021/01/24 06:51:35;;;;;;;2.60;2.40;;;5.70;58.50;;;;;;6186281;23;20416;-74
2021/01/24 06:54:03;;;;;;;3.50;3.20;;;5.60;58.50;;;;;;6186021;23;20418;-75
2021/01/24 06:56:40;;;;;;;3.80;2.67;;;5.60;58.60;;;;;;6186605;23;20456;-74
2021/01/24 06:59:08;;;;;;;3.37;3.00;;;5.60;58.00;;;;;;6185979;23;20451;-75
2021/01/24 07:01:36;;;;;;;2.83;2.63;;;5.50;58.00;;;;;;6183472;23;20897;-74
2021/01/24 07:04:41;;;;;;;4.97;3.10;;;5.50;58.40;;;;;;6186007;23;20398;-74
2021/01/24 07:07:36;;;;;;;3.67;2.13;;;5.40;57.40;;;;;;6185990;23;20432;-74
2021/01/24 07:10:42;;;;;;;5.53;3.83;;;5.30;57.30;;;;;;6117570;23;20427;-74
2021/01/24 07:13:33;;;;;;;2.43;2.23;;;5.30;57.10;;;;;;6185735;23;20412;-74
2021/01/24 07:16:01;;;;;;;3.00;2.17;;;5.30;57.20;;;;;;6186257;23;20451;-74
2021/01/24 07:18:41;;;;;;;5.57;3.27;;;5.40;57.20;;;;;;6185836;23;20440;-74
2021/01/24 07:21:07;;;;;;;6.43;2.70;;;5.50;57.50;;;;;;6185412;23;20936;-74
2021/01/24 07:23:34;;;;;;;3.00;2.60;;;5.40;57.80;;;;;;6185504;23;20935;-74
2021/01/24 07:26:02;;;;;;;3.90;3.23;;;5.30;58.10;;;;;;6185439;23;20910;-74
2021/01/24 07:28:30;;;;;;;3.00;2.70;;;5.30;58.60;;;;;;6184042;23;20436;-74
2021/01/24 07:31:01;;;;;;;3.23;2.77;;;5.30;58.90;;;;;;6185327;23;20914;-74
2021/01/24 07:33:30;;;;;;;3.43;3.13;;;5.40;59.10;;;;;;6185524;23;20412;-74
2021/01/24 07:36:01;;;;;;;3.20;3.00;;;5.40;59.00;;;;;;6185124;23;20444;-74
2021/01/24 07:38:29;;;;;;;3.90;2.60;;;5.40;58.90;;;;;;6185681;23;20421;-74
2021/01/24 07:40:57;;;;;;;3.10;2.80;;;5.40;58.60;;;;;;6185789;23;20710;-74
2021/01/24 07:43:24;;;;;;;4.10;3.10;;;5.50;59.00;;;;;;6186032;23;20416;-74
2021/01/24 07:45:51;;;;;;;4.33;2.90;;;5.50;58.70;;;;;;6184795;23;20446;-74
2021/01/24 07:48:19;;;;;;;3.00;2.70;;;5.50;57.90;;;;;;6185513;23;20410;-75
2021/01/24 07:50:45;;;;;;;2.63;2.43;;;5.40;57.50;;;;;;6185608;23;20481;-74
2021/01/24 07:53:12;;;;;;;2.47;2.27;;;5.40;57.50;;;;;;6185707;23;20424;-74
2021/01/24 07:55:40;;;;;;;2.93;2.37;;;5.40;57.50;;;;;;6182941;23;20421;-74
2021/01/24 07:58:08;;;;;;;5.03;2.30;;;5.50;57.80;;;;;;6185265;23;20417;-74
2021/01/24 08:00:35;;;;;;;2.40;2.20;;;5.60;57.70;;;;;;6185087;23;20444;-74
2021/01/24 08:03:01;;;;;;;2.70;2.50;;;5.80;57.00;;;;;;6185395;23;20421;-74
2021/01/24 08:05:33;;;;;;;3.83;3.20;;;6.00;56.70;;;;;;6185908;23;20417;-74
2021/01/24 08:07:59;;;;;;;2.57;2.37;;;6.10;56.00;;;;;;6185668;23;20437;-74
2021/01/24 08:10:30;;;;;;;2.77;2.10;;;6.20;55.60;;;;;;6185636;23;20417;-73
2021/01/24 08:12:57;;;;;;;3.13;2.93;;;6.30;55.30;;;;;;6185769;23;20788;-73
2021/01/24 08:15:24;;;;;;;2.50;2.30;;;6.30;54.30;;;;;;6184912;23;20462;-74
2021/01/24 08:17:51;;;;;;;2.50;2.30;;;6.20;54.10;;;;;;6185209;23;21016;-74
2021/01/24 08:20:19;;;;;;;3.40;2.20;;;6.20;54.50;;;;;;6183284;23;20413;-74
2021/01/24 08:22:47;;;;;;;2.07;1.97;;;6.20;54.80;;;;;;6185335;23;20409;-74
2021/01/24 08:25:15;;;;;;;5.80;2.50;;;6.20;54.80;;;;;;6185608;23;20787;-74
2021/01/24 08:27:43;;;;;;;3.00;1.90;;;6.30;54.80;;;;;;6185480;23;20417;-74
2021/01/24 08:30:10;;;;;;;2.17;1.97;;;6.40;54.30;;;;;;6185607;23;20414;-74
2021/01/24 08:32:39;;;;;;;2.20;2.00;;;6.50;53.90;;;;;;6184750;23;20438;-74
2021/01/24 08:35:06;;;;;;;2.77;2.37;;;6.60;54.20;;;;;;6185295;23;20495;-74
2021/01/24 08:37:33;;;;;;;2.80;2.30;;;6.70;54.00;;;;;;6184804;23;21567;-74
2021/01/24 08:40:00;;;;;;;4.30;2.70;;;6.70;53.50;;;;;;6184813;23;20416;-74
2021/01/24 08:42:43;;;;;;;2.33;2.03;;;6.60;53.30;;;;;;6185128;23;20409;-74
2021/01/24 08:45:10;;;;;;;2.33;2.20;;;6.60;54.00;;;;;;6184752;23;20418;-74
2021/01/24 08:47:37;;;;;;;2.77;2.43;;;6.70;54.20;;;;;;6183046;23;20403;-74
2021/01/24 08:50:08;;;;;;;3.67;2.47;;;6.80;54.30;;;;;;6184963;23;20423;-75
2021/01/24 08:52:34;;;;;;;5.53;2.10;;;6.90;53.70;;;;;;6185579;23;20475;-74
2021/01/24 08:55:03;;;;;;;2.37;2.17;;;7.10;53.20;;;;;;6185130;23;20794;-74
2021/01/24 08:57:33;;;;;;;2.63;2.43;;;7.10;52.90;;;;;;6184812;23;20454;-74
2021/01/24 09:00:01;;;;;;;3.60;2.57;;;7.20;53.00;;;;;;6184326;23;20720;-74
2021/01/24 09:02:31;;;;;;;3.20;2.40;;;7.10;52.60;;;;;;6184582;23;20406;-74
2021/01/24 09:04:59;;;;;;;2.40;2.20;;;7.10;52.90;;;;;;6184656;23;22023;-74
2021/01/24 09:07:36;;;;;;;2.50;2.30;;;7.00;53.10;;;;;;6184930;23;20440;-74
2021/01/24 09:10:19;;;;;;;3.20;2.80;;;6.90;53.30;;;;;;6184565;23;20476;-74
2021/01/24 09:12:46;;;;;;;2.87;2.57;;;6.90;53.70;;;;;;6184709;23;20418;-75
2021/01/24 09:15:13;;;;;;;3.10;2.27;;;6.80;53.50;;;;;;6182582;23;20398;-75
2021/01/24 09:17:40;;;;;;;3.10;2.47;;;6.80;53.70;;;;;;6184966;23;20943;-75
2021/01/24 09:20:08;;;;;;;2.50;2.30;;;6.70;54.00;;;;;;6184996;23;20414;-74
2021/01/24 09:22:35;;;;;;;2.60;2.40;;;6.80;54.10;;;;;;6184575;23;20812;-74
2021/01/24 09:25:02;;;;;;;4.63;2.40;;;6.80;54.70;;;;;;6185168;23;20410;-75
2021/01/24 09:27:29;;;;;;;2.43;2.23;;;6.90;55.10;;;;;;6184460;23;20419;-74
2021/01/24 09:29:56;;;;;;;4.40;2.27;;;6.80;55.50;;;;;;6184567;23;20435;-74
2021/01/24 09:32:22;;;;;;;3.73;2.17;;;6.70;56.60;;;;;;6184684;23;20418;-74
2021/01/24 09:34:49;;;;;;;3.33;3.10;;;6.50;57.90;;;;;;6185106;23;20470;-74
2021/01/24 09:37:15;;;;;;;4.07;2.67;;;6.30;58.70;;;;;;6184543;23;20486;-73
2021/01/24 09:39:42;;;;;;;2.20;2.10;;;6.10;60.50;;;;;;6184665;23;20504;-75
2021/01/24 09:42:08;;;;;;;3.30;3.00;;;6.00;62.30;;;;;;6182325;23;20938;-75
2021/01/24 09:44:36;;;;;;;4.80;2.67;;;5.90;63.60;;;;;;6184434;23;20986;-75
2021/01/24 09:47:03;;;;;;;2.23;1.80;;;6.00;64.40;;;;;;6184310;23;20414;-75
2021/01/24 09:49:29;;;;;;;4.10;3.40;;;6.00;64.20;;;;;;6184584;23;20411;-75
2021/01/24 09:51:56;;;;;;;4.77;3.60;;;6.00;64.70;;;;;;6184732;23;20437;-74
2021/01/24 09:54:22;;;;;;;3.50;3.17;;;6.00;65.40;;;;;;6184529;23;20418;-74
2021/01/24 09:56:49;;;;;;;2.80;2.60;;;6.10;65.80;;;;;;6184490;23;20456;-74
2021/01/24 09:59:15;;;;;;;3.80;3.50;;;6.10;65.20;;;;;;6184261;23;20920;-74
2021/01/24 10:01:43;;;;;;;3.30;3.00;;;6.20;65.50;;;;;;6184027;23;20418;-75
2021/01/24 10:04:10;;;;;;;2.67;2.47;;;6.30;65.10;;;;;;6184508;23;20414;-75
2021/01/24 10:06:37;;;;;;;3.13;2.87;;;6.40;64.20;;;;;;6183820;23;20414;-74
2021/01/24 10:09:05;;;;;;;3.10;2.90;;;6.50;63.60;;;;;;6182242;23;20417;-74
2021/01/24 10:11:31;;;;;;;4.10;3.63;;;6.70;63.60;;;;;;6184744;23;20416;-74
2021/01/24 10:13:58;;;;;;;4.60;3.10;;;6.80;62.40;;;;;;6186286;23;20793;-74
2021/01/24 10:16:25;;;;;;;2.90;2.70;;;6.80;62.10;;;;;;6186077;23;20450;-74
2021/01/24 10:18:52;;;;;;;4.50;3.13;;;6.80;60.50;;;;;;6185893;23;20447;-74
2021/01/24 10:21:19;;;;;;;2.47;2.27;;;6.80;61.40;;;;;;6186460;23;20432;-74
2021/01/24 10:23:45;;;;;;;3.23;2.50;;;6.80;61.40;;;;;;6186578;23;20411;-74
2021/01/24 10:26:14;;;;;;;2.90;2.70;;;6.70;59.60;;;;;;6186577;23;20418;-75
2021/01/24 10:28:41;;;;;;;2.50;2.30;;;6.70;59.90;;;;;;6186160;23;20410;-74
2021/01/24 10:31:07;;;;;;;4.70;2.13;;;6.70;59.90;;;;;;6186158;23;20416;-74
2021/01/24 10:33:34;;;;;;;3.10;2.17;;;6.80;59.50;;;;;;6185291;23;20452;-75
2021/01/24 10:36:02;;;;;;;3.20;2.90;;;6.80;58.80;;;;;;6184456;23;20488;-74
2021/01/24 10:38:28;;;;;;;2.30;1.97;;;6.90;58.20;;;;;;6186122;23;20437;-74
2021/01/24 10:40:55;;;;;;;2.43;2.10;;;6.90;58.10;;;;;;6186159;23;20469;-75
2021/01/24 10:43:21;;;;;;;1.83;1.73;;;6.80;56.30;;;;;;6185739;23;20889;-74
2021/01/24 10:45:48;;;;;;;2.33;2.07;;;6.80;56.90;;;;;;6186118;23;20439;-74
2021/01/24 10:48:14;;;;;;;2.40;2.20;;;6.90;57.00;;;;;;6186228;23;20410;-75
2021/01/24 10:50:41;;;;;;;4.83;2.07;;;6.90;55.70;;;;;;6187464;23;20425;-75
2021/01/24 10:53:08;;;;;;;1.40;1.30;;;6.90;54.60;;;;;;6186220;23;20419;-74
2021/01/24 10:55:36;;;;;;;3.27;1.93;;;6.80;54.30;;;;;;6185975;23;20414;-74
2021/01/24 10:58:03;;;;;;;2.80;2.13;;;6.80;53.40;;;;;;6186299;23;20546;-74
2021/01/24 11:00:30;;;;;;;3.97;2.03;;;7.00;53.90;;;;;;6184663;23;20895;-75
2021/01/24 11:02:57;;;;;;;1.67;1.57;;;7.30;52.90;;;;;;6185895;23;20437;-74
2021/01/24 11:05:24;;;;;;;1.60;1.50;;;7.60;52.10;;;;;;6186268;23;20500;-74
2021/01/24 11:07:51;;;;;;;5.23;1.90;;;7.80;51.00;;;;;;6185488;23;20897;-74
2021/01/24 11:10:19;;;;;;;2.27;2.07;;;8.00;50.20;;;;;;6185499;23;20535;-74
2021/01/24 11:12:46;;;;;;;2.37;2.17;;;8.30;49.80;;;;;;6185516;23;20422;-74
2021/01/24 11:15:13;;;;;;;2.70;1.77;;;8.50;48.10;;;;;;6186192;23;20523;-73
2021/01/24 11:17:39;;;;;;;1.60;1.50;;;8.60;47.50;;;;;;6185798;23;20852;-73
2021/01/24 11:20:08;;;;;;;2.00;1.87;;;8.80;47.50;;;;;;6186499;23;20437;-73
2021/01/24 11:22:35;;;;;;;4.00;2.00;;;9.00;46.20;;;;;;6185382;23;20411;-74
2021/01/24 11:25:02;;;;;;;3.27;2.00;;;8.90;45.80;;;;;;6185945;23;20419;-73
2021/01/24 11:27:29;;;;;;;2.10;1.57;;;8.70;46.50;;;;;;6183501;23;20442;-74
2021/01/24 11:30:00;;;;;;;1.40;1.30;;;8.70;46.60;;;;;;6186407;23;20416;-74
2021/01/24 11:32:27;;;;;;;1.83;1.73;;;8.60;46.50;;;;;;6186008;23;20446;-73
2021/01/24 11:34:54;;;;;;;2.67;2.17;;;8.60;46.60;;;;;;6186270;23;20426;-73
2021/01/24 11:37:23;;;;;;;1.60;1.50;;;8.70;47.50;;;;;;6186631;23;20457;-73
2021/01/24 11:39:53;;;;;;;1.60;1.50;;;8.90;47.10;;;;;;6186024;23;20506;-73
2021/01/24 11:42:25;;;;;;;2.13;2.03;;;9.20;45.50;;;;;;6185206;23;20470;-74
2021/01/24 11:45:02;;;;;;;1.70;1.60;;;9.00;45.50;;;;;;6186265;23;20408;-73
2021/01/24 11:47:29;;;;;;;1.93;1.73;;;9.00;46.70;;;;;;6185705;23;20423;-74
2021/01/24 11:49:57;;;;;;;2.03;1.87;;;8.90;46.30;;;;;;6185736;23;20420;-74
2021/01/24 11:52:24;;;;;;;2.40;1.87;;;8.90;46.90;;;;;;6184338;23;20499;-74
2021/01/24 11:54:51;;;;;;;1.87;1.77;;;9.20;46.90;;;;;;6183586;23;20910;-74
2021/01/24 11:57:18;;;;;;;1.83;1.33;;;9.20;46.10;;;;;;6185230;23;20464;-74
2021/01/24 11:59:44;;;;;;;2.57;2.00;;;9.10;46.00;;;;;;6181623;23;20413;-73
2021/01/24 12:02:12;;;;;;;2.60;1.83;;;8.80;46.00;;;;;;6184995;23;20472;-74
2021/01/24 12:04:38;;;;;;;2.60;2.10;;;8.70;46.40;;;;;;6185179;23;20414;-73
2021/01/24 12:07:05;;;;;;;2.23;2.10;;;8.60;46.80;;;;;;6184956;23;20480;-73
2021/01/24 12:09:32;;;;;;;1.70;1.60;;;8.60;46.60;;;;;;6185537;23;20409;-73
2021/01/24 12:11:59;;;;;;;2.70;1.97;;;8.60;46.80;;;;;;6184312;23;20413;-74
2021/01/24 12:14:25;;;;;;;2.40;1.80;;;8.30;46.90;;;;;;6185089;23;20417;-74
2021/01/24 12:16:52;;;;;;;8.60;1.90;;;8.30;47.70;;;;;;6185226;23;20458;-74
2021/01/24 12:19:19;;;;;;;1.90;1.70;;;8.40;47.30;;;;;;6185358;23;20413;-74
2021/01/24 12:21:46;;;;;;;1.70;1.60;;;8.40;47.10;;;;;;6183273;23;20414;-74
2021/01/24 12:24:12;;;;;;;1.97;1.83;;;8.30;47.20;;;;;;6185303;23;20422;-74
2021/01/24 12:26:39;;;;;;;3.93;1.93;;;8.30;47.60;;;;;;6184906;23;20417;-74
2021/01/24 12:29:05;;;;;;;1.87;1.77;;;8.40;47.40;;;;;;6184336;23;20461;-74
2021/01/24 12:31:32;;;;;;;3.50;1.80;;;8.10;47.30;;;;;;6184475;23;20409;-74
2021/01/24 12:33:59;;;;;;;1.77;1.50;;;8.10;48.00;;;;;;6184710;23;20834;-74
2021/01/24 12:36:26;;;;;;;4.73;2.00;;;8.10;48.30;;;;;;6184713;23;20521;-74
2021/01/24 12:38:53;;;;;;;2.00;1.70;;;8.10;47.90;;;;;;6184516;23;20425;-75
2021/01/24 12:41:21;;;;;;;2.37;2.17;;;7.90;47.70;;;;;;6185112;23;20416;-74
2021/01/24 12:43:47;;;;;;;2.13;1.93;;;7.70;48.10;;;;;;6184848;23;20413;-74
2021/01/24 12:46:14;;;;;;;2.23;2.03;;;7.60;48.60;;;;;;6183683;23;20409;-74
2021/01/24 12:48:40;;;;;;;2.73;1.93;;;7.60;49.10;;;;;;6183098;23;20790;-74
2021/01/24 12:51:08;;;;;;;2.77;2.40;;;7.40;48.70;;;;;;6184703;23;20467;-74
2021/01/24 12:53:35;;;;;;;3.30;1.47;;;7.40;49.40;;;;;;6184924;23;20482;-74
2021/01/24 12:56:01;;;;;;;8.27;3.00;;;7.30;49.60;;;;;;6184953;23;20728;-74
2021/01/24 12:58:29;;;;;;;4.40;2.13;;;7.50;49.80;;;;;;6184431;23;20972;-74
2021/01/24 13:00:55;;;;;;;1.90;1.80;;;7.70;49.00;;;;;;6184515;23;20427;-75
2021/01/24 13:03:22;;;;;;;4.13;2.13;;;7.70;48.30;;;;;;6184633;23;20425;-75